createdAt,value
2018-12-27T00:00:38.541Z,3.06
2018-12-27T00:03:27.596Z,3.00
2018-12-27T00:06:16.655Z,3.12
2018-12-27T00:09:26.503Z,2.87
2018-12-27T00:12:07.966Z,2.82
2018-12-27T00:14:57.039Z,3.19
2018-12-27T00:17:45.820Z,2.99
2018-12-27T00:20:35.205Z,2.96
2018-12-27T00:23:24.272Z,2.90
2018-12-27T00:26:13.368Z,2.79
2018-12-27T00:29:02.442Z,2.89
2018-12-27T00:31:51.757Z,2.90
2018-12-27T00:34:41.081Z,2.82
2018-12-27T00:37:30.331Z,2.83
2018-12-27T00:40:19.612Z,2.94
2018-12-27T00:43:08.962Z,3.06
2018-12-27T00:45:58.283Z,2.95
2018-12-27T00:48:47.681Z,2.88
2018-12-27T00:51:36.917Z,2.82
2018-12-27T00:54:26.227Z,2.89
2018-12-27T00:57:15.490Z,3.12
2018-12-27T01:00:04.812Z,3.10
2018-12-27T01:02:54.099Z,2.99
2018-12-27T01:05:43.401Z,2.99
2018-12-27T01:08:32.686Z,2.89
2018-12-27T01:11:22.243Z,2.87
2018-12-27T01:14:03.996Z,2.69
2018-12-27T01:16:53.320Z,2.74
2018-12-27T01:19:42.719Z,2.82
2018-12-27T01:22:32.122Z,2.75
2018-12-27T01:25:21.722Z,2.76
2018-12-27T01:28:11.030Z,2.64
2018-12-27T01:31:00.300Z,2.57
2018-12-27T01:33:49.894Z,2.57
2018-12-27T01:36:20.015Z,2.64
2018-12-27T01:39:09.327Z,2.58
2018-12-27T01:41:58.623Z,2.53
2018-12-27T01:44:47.929Z,2.58
2018-12-27T01:47:37.685Z,2.62
2018-12-27T01:50:07.764Z,2.58
2018-12-27T01:52:57.034Z,2.53
2018-12-27T01:55:46.336Z,2.57
2018-12-27T01:58:35.617Z,2.62
2018-12-27T02:04:20.240Z,2.54
2018-12-27T02:07:09.549Z,2.49
2018-12-27T02:09:58.821Z,2.42
2018-12-27T02:12:40.475Z,2.38
2018-12-27T02:15:29.747Z,2.38
2018-12-27T02:18:19.056Z,2.44
2018-12-27T02:21:08.371Z,2.40
2018-12-27T02:23:57.695Z,2.36
2018-12-27T02:26:46.952Z,2.31
2018-12-27T02:29:36.245Z,2.34
2018-12-27T02:32:25.521Z,2.31
2018-12-27T02:35:14.863Z,2.31
2018-12-27T02:38:04.151Z,2.29
2018-12-27T02:40:53.442Z,2.25
2018-12-27T02:43:42.739Z,2.23
2018-12-27T02:46:32.032Z,2.15
2018-12-27T02:49:21.336Z,2.09
2018-12-27T02:52:10.649Z,2.09
2018-12-27T02:54:59.925Z,2.04
2018-12-27T02:57:49.224Z,2.03
2018-12-27T03:00:38.504Z,2.03
2018-12-27T03:03:27.805Z,2.06
2018-12-27T03:06:17.092Z,2.20
2018-12-27T03:09:06.585Z,2.15
2018-12-27T03:11:55.879Z,2.21
2018-12-27T03:14:41.794Z,2.23
2018-12-27T03:17:31.082Z,2.18
2018-12-27T03:20:21.014Z,2.19
2018-12-27T03:23:17.411Z,2.08
2018-12-27T03:26:06.757Z,2.08
2018-12-27T03:28:56.049Z,1.99
2018-12-27T03:31:45.361Z,1.94
2018-12-27T03:34:34.977Z,1.90
2018-12-27T03:37:24.532Z,1.78
2018-12-27T03:40:13.842Z,1.72
2018-12-27T03:43:03.137Z,1.68
2018-12-27T03:45:52.414Z,1.58
2018-12-27T03:48:41.709Z,1.59
2018-12-27T03:51:30.996Z,1.76
2018-12-27T03:54:20.271Z,1.72
2018-12-27T03:57:09.576Z,1.62
2018-12-27T03:59:58.850Z,1.58
2018-12-27T04:02:48.156Z,1.48
2018-12-27T04:05:37.432Z,1.26
2018-12-27T04:08:26.830Z,1.16
2018-12-27T04:11:16.369Z,1.10
2018-12-27T04:13:59.074Z,0.97
2018-12-27T04:16:48.138Z,1.00
2018-12-27T04:19:37.197Z,0.92
2018-12-27T04:22:26.280Z,1.02
2018-12-27T04:25:15.349Z,0.98
2018-12-27T04:31:12.693Z,1.16
2018-12-27T04:37:30.159Z,1.03
2018-12-27T04:40:19.501Z,0.91
2018-12-27T04:43:08.573Z,0.78
2018-12-27T04:45:57.610Z,0.73
2018-12-27T04:48:46.692Z,0.66
2018-12-27T04:51:35.789Z,0.62
2018-12-27T04:54:24.963Z,0.67
2018-12-27T04:57:14.061Z,0.78
2018-12-27T05:00:03.132Z,0.89
2018-12-27T05:02:52.200Z,0.97
2018-12-27T05:05:41.260Z,1.06
2018-12-27T05:08:30.319Z,1.03
2018-12-27T05:11:19.384Z,1.05
2018-12-27T05:14:08.450Z,1.02
2018-12-27T05:16:57.540Z,0.96
2018-12-27T05:19:46.584Z,1.00
2018-12-27T05:22:35.921Z,0.92
2018-12-27T05:25:24.980Z,0.88
2018-12-27T05:28:14.045Z,0.72
2018-12-27T05:31:03.121Z,0.65
2018-12-27T05:33:52.331Z,0.64
2018-12-27T05:36:41.347Z,0.61
2018-12-27T05:39:30.407Z,0.66
2018-12-27T05:42:19.472Z,0.45
2018-12-27T05:45:08.579Z,0.45
2018-12-27T05:47:57.632Z,0.31
2018-12-27T05:50:46.742Z,0.29
2018-12-27T05:53:35.799Z,0.28
2018-12-27T05:56:24.853Z,0.28
2018-12-27T05:59:13.969Z,0.20
2018-12-27T06:02:02.990Z,0.13
2018-12-27T06:04:52.195Z,0.10
2018-12-27T06:07:41.272Z,-0.02
2018-12-27T06:10:30.338Z,-0.13
2018-12-27T06:13:19.397Z,-0.19
2018-12-27T06:16:00.987Z,-0.09
2018-12-27T06:18:50.071Z,-0.08
2018-12-27T06:21:39.170Z,-0.08
2018-12-27T06:24:28.232Z,-0.12
2018-12-27T06:27:17.337Z,-0.20
2018-12-27T06:30:06.891Z,-0.28
2018-12-27T06:32:55.955Z,-0.35
2018-12-27T06:35:45.016Z,-0.36
2018-12-27T06:38:34.134Z,-0.22
2018-12-27T06:41:23.193Z,0.04
2018-12-27T06:44:12.282Z,0.32
2018-12-27T06:47:01.342Z,0.38
2018-12-27T06:49:50.409Z,0.38
2018-12-27T06:52:39.485Z,0.42
2018-12-27T06:55:28.972Z,0.66
2018-12-27T06:58:18.050Z,0.74
2018-12-27T07:01:07.147Z,0.65
2018-12-27T07:03:56.187Z,0.61
2018-12-27T07:06:45.276Z,0.61
2018-12-27T07:09:34.330Z,0.57
2018-12-27T07:12:23.405Z,0.58
2018-12-27T07:15:12.475Z,0.50
2018-12-27T07:17:54.536Z,0.54
2018-12-27T07:20:43.591Z,0.39
2018-12-27T07:23:32.957Z,0.52
2018-12-27T07:26:22.052Z,0.46
2018-12-27T07:29:11.112Z,0.54
2018-12-27T07:32:00.166Z,0.57
2018-12-27T07:34:56.303Z,0.56
2018-12-27T07:37:40.108Z,0.55
2018-12-27T07:40:29.251Z,0.46
2018-12-27T07:43:18.309Z,0.53
2018-12-27T07:46:10.903Z,0.58
2018-12-27T07:48:58.167Z,0.61
2018-12-27T07:51:47.214Z,0.67
2018-12-27T07:54:17.252Z,0.98
2018-12-27T07:57:06.306Z,1.16
2018-12-27T07:59:55.407Z,1.20
2018-12-27T08:02:44.495Z,1.19
2018-12-27T08:05:33.552Z,1.29
2018-12-27T08:08:22.630Z,1.41
2018-12-27T08:11:11.730Z,1.48
2018-12-27T08:14:00.790Z,1.50
2018-12-27T08:16:42.630Z,1.63
2018-12-27T08:19:31.685Z,1.69
2018-12-27T08:22:20.741Z,1.80
2018-12-27T08:25:09.822Z,1.86
2018-12-27T08:27:58.869Z,2.03
2018-12-27T08:30:47.931Z,2.24
2018-12-27T08:33:37.068Z,2.32
2018-12-27T08:36:26.125Z,2.53
2018-12-27T08:39:15.178Z,2.65
2018-12-27T08:42:04.221Z,2.75
2018-12-27T08:44:53.397Z,2.79
2018-12-27T08:47:42.467Z,2.90
2018-12-27T08:50:31.563Z,3.00
2018-12-27T08:53:01.356Z,3.07
2018-12-27T08:55:50.505Z,3.33
2018-12-27T08:58:39.567Z,3.43
2018-12-27T09:01:28.878Z,3.35
2018-12-27T09:04:17.946Z,3.32
2018-12-27T09:07:27.762Z,3.44
2018-12-27T09:10:16.872Z,3.79
2018-12-27T09:13:26.538Z,3.57
2018-12-27T09:16:08.197Z,3.71
2018-12-27T09:18:57.277Z,3.63
2018-12-27T09:21:46.351Z,3.71
2018-12-27T09:24:35.496Z,3.68
2018-12-27T09:27:24.548Z,3.83
2018-12-27T09:30:13.589Z,3.62
2018-12-27T09:33:02.646Z,3.72
2018-12-27T09:35:51.753Z,3.77
2018-12-27T09:38:40.796Z,3.74
2018-12-27T09:41:29.856Z,3.93
2018-12-27T09:44:18.916Z,4.02
2018-12-27T09:47:07.997Z,4.12
2018-12-27T09:49:57.068Z,4.09
2018-12-27T09:52:46.141Z,4.32
2018-12-27T09:55:35.203Z,4.50
2018-12-27T09:58:24.376Z,5.03
2018-12-27T10:01:13.436Z,4.65
2018-12-27T10:04:02.513Z,4.89
2018-12-27T10:06:51.559Z,4.92
2018-12-27T10:09:40.657Z,5.05
2018-12-27T10:12:29.722Z,4.89
2018-12-27T10:15:18.809Z,4.99
2018-12-27T10:18:00.795Z,5.27
2018-12-27T10:20:49.870Z,5.33
2018-12-27T10:23:38.968Z,5.38
2018-12-27T10:26:28.016Z,5.35
2018-12-27T10:29:17.083Z,5.39
2018-12-27T10:32:06.263Z,5.59
2018-12-27T10:34:55.307Z,5.53
2018-12-27T10:37:44.701Z,5.54
2018-12-27T10:40:33.756Z,5.47
2018-12-27T10:43:22.828Z,5.52
2018-12-27T10:46:11.901Z,5.71
2018-12-27T10:49:00.957Z,5.91
2018-12-27T10:51:50.041Z,6.00
2018-12-27T10:54:39.198Z,5.94
2018-12-27T10:57:28.246Z,5.75
2018-12-27T11:03:12.869Z,5.95
2018-12-27T11:06:01.954Z,6.04
2018-12-27T11:08:51.011Z,6.09
2018-12-27T11:11:40.418Z,6.07
2018-12-27T11:14:29.599Z,6.19
2018-12-27T11:17:18.652Z,6.29
2018-12-27T11:20:00.211Z,6.35
2018-12-27T11:22:49.308Z,6.52
2018-12-27T11:25:19.091Z,6.41
2018-12-27T11:28:08.417Z,6.23
2018-12-27T11:30:58.137Z,6.26
2018-12-27T11:33:48.311Z,6.25
2018-12-27T11:36:18.117Z,6.20
2018-12-27T11:39:07.195Z,6.70
2018-12-27T11:41:56.326Z,6.28
2018-12-27T11:44:45.458Z,6.27
2018-12-27T11:47:34.563Z,6.32
2018-12-27T11:50:23.675Z,6.17
2018-12-27T11:53:13.036Z,6.50
2018-12-27T11:56:02.112Z,6.60
2018-12-27T11:58:51.218Z,6.72
2018-12-27T12:01:40.313Z,6.57
2018-12-27T12:04:29.375Z,6.83
2018-12-27T12:07:18.474Z,7.18
2018-12-27T12:13:36.601Z,6.90
2018-12-27T12:16:25.690Z,7.29
2018-12-27T12:19:08.226Z,7.39
2018-12-27T12:21:57.311Z,7.56
2018-12-27T12:24:46.380Z,7.26
2018-12-27T12:27:35.570Z,7.39
2018-12-27T12:30:25.017Z,7.32
2018-12-27T12:33:14.204Z,7.83
2018-12-27T12:36:10.370Z,7.40
2018-12-27T12:38:54.079Z,7.30
2018-12-27T12:41:43.163Z,7.13
2018-12-27T12:44:32.268Z,7.09
2018-12-27T12:47:21.327Z,7.20
2018-12-27T12:50:10.478Z,7.33
2018-12-27T12:52:59.552Z,7.41
2018-12-27T12:55:48.677Z,7.30
2018-12-27T12:58:37.751Z,7.37
2018-12-27T13:01:26.869Z,7.69
2018-12-27T13:04:15.954Z,7.65
2018-12-27T13:07:05.326Z,7.77
2018-12-27T13:09:54.397Z,7.75
2018-12-27T13:12:43.753Z,8.18
2018-12-27T13:15:32.837Z,7.96
2018-12-27T13:18:14.906Z,7.82
2018-12-27T13:21:03.957Z,7.84
2018-12-27T13:23:53.126Z,7.92
2018-12-27T13:26:42.260Z,7.60
2018-12-27T13:29:31.335Z,7.60
2018-12-27T13:32:22.586Z,7.67
2018-12-27T13:35:11.664Z,7.63
2018-12-27T13:38:00.749Z,7.69
2018-12-27T13:40:49.832Z,7.63
2018-12-27T13:43:38.885Z,7.50
2018-12-27T13:46:27.927Z,7.40
2018-12-27T13:49:17.041Z,7.56
2018-12-27T13:52:06.135Z,7.36
2018-12-27T13:54:55.195Z,7.60
2018-12-27T13:57:46.613Z,7.46
2018-12-27T14:00:16.400Z,7.37
2018-12-27T14:03:05.478Z,7.42
2018-12-27T14:05:54.516Z,7.35
2018-12-27T14:08:43.609Z,7.06
2018-12-27T14:11:32.770Z,7.08
2018-12-27T14:14:21.907Z,7.08
2018-12-27T14:17:11.003Z,7.16
2018-12-27T14:19:53.996Z,7.31
2018-12-27T14:22:43.040Z,7.14
2018-12-27T14:25:32.107Z,7.04
2018-12-27T14:28:21.198Z,7.05
2018-12-27T14:31:10.270Z,7.00
2018-12-27T14:33:59.409Z,7.16
2018-12-27T14:36:48.508Z,6.96
2018-12-27T14:39:37.582Z,6.92
2018-12-27T14:42:26.670Z,6.63
2018-12-27T14:45:15.785Z,6.63
2018-12-27T14:48:04.841Z,6.50
2018-12-27T14:50:53.939Z,6.48
2018-12-27T14:53:43.119Z,6.40
2018-12-27T14:56:32.181Z,6.52
2018-12-27T14:59:32.940Z,6.38
2018-12-27T15:02:12.092Z,6.44
2018-12-27T15:05:01.152Z,6.33
2018-12-27T15:07:50.298Z,6.21
2018-12-27T15:10:39.739Z,6.37
2018-12-27T15:13:28.821Z,6.21
2018-12-27T15:16:17.923Z,6.15
2018-12-27T15:18:59.784Z,6.06
2018-12-27T15:21:48.863Z,5.97
2018-12-27T15:24:37.923Z,6.03
2018-12-27T15:27:26.991Z,5.88
2018-12-27T15:30:16.044Z,5.69
2018-12-27T15:33:05.196Z,5.56
2018-12-27T15:35:54.281Z,5.39
2018-12-27T15:38:43.381Z,5.35
2018-12-27T15:41:32.469Z,5.25
2018-12-27T15:44:21.630Z,5.14
2018-12-27T15:47:10.758Z,4.98
2018-12-27T15:49:59.799Z,4.85
2018-12-27T15:52:48.880Z,4.78
2018-12-27T15:55:37.937Z,4.72
2018-12-27T15:58:27.000Z,4.64
2018-12-27T16:01:16.043Z,4.48
2018-12-27T16:04:05.202Z,4.37
2018-12-27T16:06:54.266Z,4.27
2018-12-27T16:09:43.575Z,4.15
2018-12-27T16:12:32.665Z,4.02
2018-12-27T16:15:21.713Z,3.90
2018-12-27T16:18:10.803Z,3.75
2018-12-27T16:20:51.027Z,3.66
2018-12-27T16:23:40.119Z,3.56
2018-12-27T16:26:29.164Z,3.43
2018-12-27T16:29:18.343Z,3.28
2018-12-27T16:32:07.371Z,3.21
2018-12-27T16:34:56.454Z,3.22
2018-12-27T16:37:45.531Z,3.20
2018-12-27T16:40:34.598Z,3.00
2018-12-27T16:43:23.791Z,2.97
2018-12-27T16:46:12.711Z,2.92
2018-12-27T16:49:01.464Z,2.99
2018-12-27T16:51:50.926Z,3.04
2018-12-27T16:54:40.000Z,3.13
2018-12-27T16:57:29.115Z,3.06
2018-12-27T17:00:18.297Z,3.02
2018-12-27T17:03:07.478Z,2.96
2018-12-27T17:05:56.558Z,2.93
2018-12-27T17:08:46.395Z,2.93
2018-12-27T17:11:36.657Z,2.94
2018-12-27T17:14:25.741Z,2.99
2018-12-27T17:17:15.267Z,3.03
2018-12-27T17:19:56.865Z,3.11
2018-12-27T17:22:46.114Z,3.10
2018-12-27T17:25:35.176Z,3.11
2018-12-27T17:28:24.252Z,3.17
2018-12-27T17:31:13.348Z,3.15
2018-12-27T17:34:02.515Z,3.27
2018-12-27T17:37:06.358Z,3.26
2018-12-27T17:39:42.508Z,3.26
2018-12-27T17:42:31.587Z,3.32
2018-12-27T17:45:20.646Z,3.43
2018-12-27T17:48:09.842Z,3.42
2018-12-27T17:50:58.892Z,3.38
2018-12-27T17:53:47.985Z,3.43
2018-12-27T17:56:37.043Z,3.70
2018-12-27T17:59:37.965Z,3.59
2018-12-27T18:02:16.903Z,3.26
2018-12-27T18:05:06.174Z,3.26
2018-12-27T18:07:55.239Z,3.33
2018-12-27T18:10:44.312Z,3.43
2018-12-27T18:13:33.378Z,3.43
2018-12-27T18:16:22.443Z,3.39
2018-12-27T18:19:11.490Z,3.22
2018-12-27T18:21:53.435Z,3.22
2018-12-27T18:24:42.513Z,3.07
2018-12-27T18:27:31.623Z,2.97
2018-12-27T18:30:20.680Z,2.90
2018-12-27T18:33:09.749Z,2.84
2018-12-27T18:35:58.842Z,2.84
2018-12-27T18:39:08.702Z,2.88
2018-12-27T18:41:57.895Z,2.88
2018-12-27T18:44:47.230Z,2.87
2018-12-27T18:47:36.327Z,2.88
2018-12-27T18:50:25.522Z,2.83
2018-12-27T18:53:14.578Z,2.81
2018-12-27T18:56:03.663Z,2.89
2018-12-27T18:58:52.734Z,2.95
2018-12-27T19:01:41.816Z,2.92
2018-12-27T19:04:30.969Z,2.92
2018-12-27T19:07:20.074Z,2.91
2018-12-27T19:16:21.364Z,3.14
2018-12-27T19:19:10.436Z,3.21
2018-12-27T19:21:52.882Z,3.21
2018-12-27T19:24:42.214Z,3.26
2018-12-27T19:27:31.339Z,3.39
2018-12-27T19:30:20.390Z,3.51
2018-12-27T19:33:09.480Z,3.75
2018-12-27T19:35:58.939Z,3.86
2018-12-27T19:38:48.066Z,3.90
2018-12-27T19:41:37.137Z,3.87
2018-12-27T19:44:26.236Z,4.13
2018-12-27T19:47:15.298Z,4.32
2018-12-27T19:53:19.685Z,4.49
2018-12-27T19:56:08.747Z,4.38
2018-12-27T19:58:57.803Z,4.38
2018-12-27T20:01:28.032Z,4.52
2018-12-27T20:04:17.134Z,4.73
2018-12-27T20:07:06.166Z,4.65
2018-12-27T20:09:55.234Z,4.53
2018-12-27T20:12:44.362Z,4.67
2018-12-27T20:15:33.124Z,4.93
2018-12-27T20:18:22.209Z,4.72
2018-12-27T20:21:04.096Z,4.71
2018-12-27T20:23:53.197Z,4.92
2018-12-27T20:26:42.266Z,4.96
2018-12-27T20:29:31.341Z,4.68
2018-12-27T20:32:20.441Z,4.88
2018-12-27T20:35:09.492Z,5.06
2018-12-27T20:37:58.584Z,4.93
2018-12-27T20:40:47.703Z,4.87
2018-12-27T20:43:36.768Z,4.80
2018-12-27T20:46:25.835Z,4.74
2018-12-27T20:49:14.983Z,4.57
2018-12-27T20:52:04.072Z,4.51
2018-12-27T20:54:53.205Z,4.44
2018-12-27T20:57:42.263Z,4.43
2018-12-27T21:00:31.348Z,4.47
2018-12-27T21:03:20.478Z,4.75
2018-12-27T21:06:09.574Z,4.73
2018-12-27T21:08:58.607Z,4.89
2018-12-27T21:11:48.009Z,4.88
2018-12-27T21:14:37.147Z,4.65
2018-12-27T21:17:26.294Z,4.70
2018-12-27T21:20:15.389Z,4.69
2018-12-27T21:22:58.002Z,4.62
2018-12-27T21:25:47.113Z,4.43
2018-12-27T21:28:36.251Z,4.41
2018-12-27T21:31:25.293Z,4.35
2018-12-27T21:34:14.503Z,4.62
2018-12-27T21:37:03.672Z,4.44
2018-12-27T21:39:52.764Z,4.35
2018-12-27T21:42:41.922Z,4.41
2018-12-27T21:45:11.722Z,4.48
2018-12-27T21:48:00.771Z,4.39
2018-12-27T21:50:49.822Z,4.35
2018-12-27T21:53:38.932Z,4.46
2018-12-27T21:56:28.002Z,4.24
2018-12-27T21:59:17.083Z,4.13
2018-12-27T22:02:06.411Z,4.20
2018-12-27T22:04:55.496Z,4.07
2018-12-27T22:07:44.556Z,4.05
2018-12-27T22:10:33.602Z,4.00
2018-12-27T22:13:22.684Z,4.15
2018-12-27T22:16:11.738Z,4.14
2018-12-27T22:19:00.868Z,4.07
2018-12-27T22:21:49.943Z,4.10
2018-12-27T22:24:31.827Z,4.24
2018-12-27T22:27:20.919Z,4.29
2018-12-27T22:30:09.989Z,4.33
2018-12-27T22:32:59.090Z,4.34
2018-12-27T22:35:48.259Z,4.07
2018-12-27T22:38:37.312Z,4.05
2018-12-27T22:41:26.416Z,3.96
2018-12-27T22:44:15.589Z,4.02
2018-12-27T22:47:04.694Z,3.91
2018-12-27T22:49:53.740Z,3.84
2018-12-27T22:52:43.002Z,3.76
2018-12-27T22:55:32.577Z,3.99
2018-12-27T22:58:21.904Z,4.07
2018-12-27T23:01:11.044Z,3.91
2018-12-27T23:03:40.909Z,3.86
2018-12-27T23:06:30.048Z,3.81
2018-12-27T23:09:19.186Z,3.77
2018-12-27T23:12:08.403Z,3.67
2018-12-27T23:14:57.556Z,3.75
2018-12-27T23:17:46.634Z,3.56
2018-12-27T23:20:35.744Z,3.51
2018-12-27T23:23:18.182Z,3.34
2018-12-27T23:26:07.562Z,3.20
2018-12-27T23:28:56.690Z,3.07
2018-12-27T23:31:45.968Z,2.95
2018-12-27T23:34:35.040Z,2.92
2018-12-27T23:37:24.211Z,2.81
2018-12-27T23:40:13.276Z,2.79
2018-12-27T23:43:02.452Z,2.76
2018-12-27T23:45:51.532Z,2.82
2018-12-27T23:48:40.642Z,2.88
2018-12-27T23:51:29.730Z,2.98
2018-12-27T23:54:18.978Z,2.90
2018-12-27T23:57:08.137Z,2.79
2018-12-27T23:59:57.236Z,2.74
